createdAt,value
2022-10-11T00:01:51.611Z,10.81
2022-10-11T00:04:19.675Z,10.90
2022-10-11T00:06:47.298Z,10.86
2022-10-11T00:09:14.703Z,10.60
2022-10-11T00:11:41.142Z,10.62
2022-10-11T00:14:08.250Z,10.45
2022-10-11T00:16:35.046Z,10.40
2022-10-11T00:19:01.480Z,10.64
2022-10-11T00:21:28.027Z,10.45
2022-10-11T00:23:54.848Z,10.22
2022-10-11T00:26:21.348Z,10.11
2022-10-11T00:28:47.947Z,10.02
2022-10-11T00:31:16.557Z,10.17
2022-10-11T00:33:42.987Z,10.12
2022-10-11T00:36:10.136Z,10.01
2022-10-11T00:38:38.353Z,10.12
2022-10-11T00:41:05.156Z,10.11
2022-10-11T00:43:32.498Z,10.06
2022-10-11T00:46:04.306Z,9.95
2022-10-11T00:48:57.269Z,9.93
2022-10-11T00:51:32.396Z,9.69
2022-10-11T00:54:00.913Z,9.84
2022-10-11T00:56:31.290Z,9.71
2022-10-11T00:59:00.379Z,9.67
2022-10-11T01:01:27.219Z,9.64
2022-10-11T01:03:54.014Z,9.62
2022-10-11T01:06:20.740Z,9.58
2022-10-11T01:08:47.283Z,9.57
2022-10-11T01:11:15.959Z,9.50
2022-10-11T01:14:00.030Z,9.50
2022-10-11T01:16:33.518Z,9.71
2022-10-11T01:19:16.309Z,9.67
2022-10-11T01:21:47.881Z,9.92
2022-10-11T01:24:26.220Z,9.86
2022-10-11T01:27:25.493Z,9.70
2022-10-11T01:30:04.415Z,9.79
2022-10-11T01:32:40.847Z,10.00
2022-10-11T01:35:16.640Z,10.04
2022-10-11T01:38:03.809Z,9.99
2022-10-11T01:40:41.654Z,9.86
2022-10-11T01:43:09.943Z,9.78
2022-10-11T01:45:37.230Z,9.76
2022-10-11T01:48:09.178Z,9.65
2022-10-11T01:50:44.218Z,9.77
2022-10-11T01:53:15.010Z,9.70
2022-10-11T01:55:53.880Z,9.69
2022-10-11T01:58:41.701Z,9.67
2022-10-11T02:01:27.174Z,9.91
2022-10-11T02:04:03.482Z,9.95
2022-10-11T02:06:37.834Z,10.04
2022-10-11T02:09:22.302Z,10.10
2022-10-11T02:11:48.815Z,10.15
2022-10-11T02:14:23.686Z,10.07
2022-10-11T02:16:58.503Z,10.20
2022-10-11T02:19:29.320Z,10.21
2022-10-11T02:22:07.716Z,10.25
2022-10-11T02:24:36.633Z,10.19
2022-10-11T02:27:04.369Z,10.26
2022-10-11T02:29:33.276Z,10.18
2022-10-11T02:32:00.612Z,10.25
2022-10-11T02:34:40.688Z,10.24
2022-10-11T02:37:26.848Z,10.47
2022-10-11T02:39:56.724Z,10.50
2022-10-11T02:42:29.847Z,10.51
2022-10-11T02:45:01.129Z,10.60
2022-10-11T02:47:29.878Z,10.63
2022-10-11T02:49:56.568Z,10.58
2022-10-11T02:52:22.975Z,10.56
2022-10-11T02:54:49.703Z,10.71
2022-10-11T02:57:16.202Z,10.71
2022-10-11T02:59:42.970Z,10.71
2022-10-11T03:02:10.181Z,10.73
2022-10-11T03:04:38.814Z,10.68
2022-10-11T03:07:05.317Z,10.75
2022-10-11T03:09:31.742Z,10.71
2022-10-11T03:11:58.511Z,10.75
2022-10-11T03:14:25.130Z,10.77
2022-10-11T03:16:52.126Z,10.78
2022-10-11T03:19:19.537Z,10.86
2022-10-11T03:21:46.268Z,10.98
2022-10-11T03:24:12.913Z,11.04
2022-10-11T03:26:39.729Z,11.08
2022-10-11T03:29:07.462Z,11.03
2022-10-11T03:31:33.961Z,11.07
2022-10-11T03:34:00.752Z,11.00
2022-10-11T03:36:27.251Z,11.06
2022-10-11T03:38:55.083Z,11.05
2022-10-11T03:41:21.649Z,10.98
2022-10-11T03:43:48.178Z,11.01
2022-10-11T03:46:15.338Z,11.05
2022-10-11T03:48:41.808Z,11.09
2022-10-11T03:51:08.659Z,11.04
2022-10-11T03:53:35.161Z,11.05
2022-10-11T03:56:07.388Z,11.05
2022-10-11T03:58:34.855Z,11.10
2022-10-11T04:01:01.290Z,11.20
2022-10-11T04:03:27.784Z,11.16
2022-10-11T04:05:55.443Z,11.14
2022-10-11T04:08:22.210Z,11.21
2022-10-11T04:10:48.744Z,11.29
2022-10-11T04:13:16.988Z,11.33
2022-10-11T04:15:43.768Z,11.33
2022-10-11T04:18:10.391Z,11.34
2022-10-11T04:20:36.862Z,11.36
2022-10-11T04:23:03.597Z,11.34
2022-10-11T04:25:30.041Z,11.37
2022-10-11T04:27:56.637Z,11.44
2022-10-11T04:30:23.163Z,11.41
2022-10-11T04:32:49.629Z,11.43
2022-10-11T04:35:16.422Z,11.41
2022-10-11T04:37:42.899Z,11.41
2022-10-11T04:40:10.196Z,11.38
2022-10-11T04:42:36.627Z,11.37
2022-10-11T04:45:03.118Z,11.31
2022-10-11T04:47:29.619Z,11.31
2022-10-11T04:49:56.161Z,11.35
2022-10-11T04:52:25.671Z,11.38
2022-10-11T04:54:52.534Z,11.41
2022-10-11T04:57:19.283Z,11.32
2022-10-11T04:59:49.979Z,11.35
2022-10-11T05:02:16.911Z,11.30
2022-10-11T05:04:43.420Z,11.27
2022-10-11T05:07:09.843Z,11.24
2022-10-11T05:09:36.347Z,11.26
2022-10-11T05:12:02.941Z,11.25
2022-10-11T05:14:29.383Z,11.22
2022-10-11T05:16:55.970Z,11.23
2022-10-11T05:19:22.735Z,11.27
2022-10-11T05:21:49.219Z,11.21
2022-10-11T05:24:15.740Z,11.10
2022-10-11T05:26:42.791Z,10.94
2022-10-11T05:29:09.239Z,11.04
2022-10-11T05:31:36.731Z,11.09
2022-10-11T05:34:03.222Z,10.88
2022-10-11T05:36:29.666Z,10.90
2022-10-11T05:38:56.499Z,10.96
2022-10-11T05:41:22.972Z,10.93
2022-10-11T05:43:49.468Z,10.95
2022-10-11T05:46:15.946Z,10.99
2022-10-11T05:48:42.477Z,10.99
2022-10-11T05:51:10.438Z,10.99
2022-10-11T05:53:38.917Z,11.04
2022-10-11T05:56:06.158Z,10.95
2022-10-11T05:58:36.721Z,11.02
2022-10-11T06:01:03.531Z,11.06
2022-10-11T06:03:30.015Z,10.98
2022-10-11T06:05:57.456Z,10.99
2022-10-11T06:08:24.068Z,10.92
2022-10-11T06:10:50.492Z,11.03
2022-10-11T06:13:17.031Z,11.08
2022-10-11T06:15:43.559Z,11.07
2022-10-11T06:18:09.985Z,11.15
2022-10-11T06:20:36.754Z,11.16
2022-10-11T06:23:04.584Z,11.04
2022-10-11T06:25:31.011Z,11.13
2022-10-11T06:27:57.499Z,11.16
2022-10-11T06:30:24.309Z,11.18
2022-10-11T06:32:50.874Z,11.12
2022-10-11T06:35:17.414Z,11.17
2022-10-11T06:37:43.879Z,11.20
2022-10-11T06:40:10.836Z,11.26
2022-10-11T06:42:37.587Z,11.36
2022-10-11T06:45:04.502Z,11.37
2022-10-11T06:47:30.948Z,11.29
2022-10-11T06:49:59.442Z,11.35
2022-10-11T06:52:25.994Z,11.47
2022-10-11T06:54:52.541Z,11.32
2022-10-11T06:57:19.213Z,11.33
2022-10-11T06:59:45.741Z,11.39
2022-10-11T07:02:12.163Z,11.37
2022-10-11T07:04:40.119Z,11.37
2022-10-11T07:07:06.595Z,11.37
2022-10-11T07:09:34.265Z,11.51
2022-10-11T07:12:01.016Z,11.58
2022-10-11T07:14:28.207Z,11.75
2022-10-11T07:16:54.718Z,11.96
2022-10-11T07:19:22.909Z,12.02
2022-10-11T07:22:08.128Z,12.24
2022-10-11T07:24:34.958Z,12.45
2022-10-11T07:27:01.675Z,12.30
2022-10-11T07:29:28.170Z,12.65
2022-10-11T07:31:54.968Z,12.78
2022-10-11T07:34:22.820Z,13.09
2022-10-11T07:36:49.652Z,13.47
2022-10-11T07:39:16.216Z,13.28
2022-10-11T07:41:45.822Z,13.67
2022-10-11T07:44:12.667Z,13.72
2022-10-11T07:46:39.107Z,13.82
2022-10-11T07:49:05.545Z,13.78
2022-10-11T07:51:32.927Z,13.98
2022-10-11T07:54:03.382Z,14.23
2022-10-11T07:56:32.806Z,14.02
2022-10-11T07:59:03.410Z,14.07
2022-10-11T08:01:30.498Z,14.18
2022-10-11T08:03:57.272Z,14.31
2022-10-11T08:06:31.826Z,14.71
2022-10-11T08:09:00.386Z,14.43
2022-10-11T08:11:32.631Z,14.27
2022-10-11T08:14:00.038Z,14.38
2022-10-11T08:16:27.540Z,14.47
2022-10-11T08:18:59.308Z,14.79
2022-10-11T08:21:26.885Z,15.26
2022-10-11T08:23:54.412Z,15.26
2022-10-11T08:26:23.702Z,15.20
2022-10-11T08:28:53.580Z,15.36
2022-10-11T08:31:20.352Z,14.96
2022-10-11T08:33:46.836Z,14.88
2022-10-11T08:36:13.447Z,15.25
2022-10-11T08:38:40.078Z,15.68
2022-10-11T08:41:40.324Z,15.92
2022-10-11T08:44:25.417Z,16.21
2022-10-11T08:47:01.511Z,16.52
2022-10-11T08:49:30.234Z,16.16
2022-10-11T08:52:04.905Z,16.19
2022-10-11T08:54:38.712Z,15.78
2022-10-11T08:57:06.315Z,16.12
2022-10-11T08:59:49.447Z,15.46
2022-10-11T09:03:07.017Z,16.42
2022-10-11T09:05:35.160Z,16.65
2022-10-11T09:08:13.716Z,16.60
2022-10-11T09:10:51.663Z,16.65
2022-10-11T09:13:49.529Z,16.24
2022-10-11T09:16:33.600Z,15.91
2022-10-11T09:19:38.729Z,15.96
2022-10-11T09:22:38.368Z,15.56
2022-10-11T09:25:19.094Z,16.38
2022-10-11T09:28:17.749Z,16.13
2022-10-11T09:30:49.135Z,15.59
2022-10-11T09:33:34.651Z,14.68
2022-10-11T09:36:01.997Z,15.02
2022-10-11T09:38:38.955Z,15.77
2022-10-11T09:41:56.330Z,15.90
2022-10-11T09:44:24.670Z,15.97
2022-10-11T09:46:51.707Z,15.55
2022-10-11T09:49:20.430Z,15.43
2022-10-11T09:51:51.339Z,15.24
2022-10-11T09:54:18.442Z,14.62
2022-10-11T09:56:46.188Z,14.54
2022-10-11T09:59:29.257Z,14.40
2022-10-11T10:02:08.016Z,14.19
2022-10-11T10:04:36.080Z,13.88
2022-10-11T10:07:13.236Z,13.80
2022-10-11T10:09:39.690Z,13.81
2022-10-11T10:12:12.874Z,13.84
2022-10-11T10:14:40.664Z,13.45
2022-10-11T10:17:15.285Z,13.31
2022-10-11T10:19:48.440Z,13.19
2022-10-11T10:22:18.321Z,13.18
2022-10-11T10:24:44.857Z,13.83
2022-10-11T10:27:14.374Z,14.44
2022-10-11T10:29:41.273Z,14.90
2022-10-11T10:32:15.781Z,15.21
2022-10-11T10:34:55.558Z,15.85
2022-10-11T10:37:29.468Z,15.51
2022-10-11T10:40:21.999Z,15.04
2022-10-11T10:42:50.232Z,15.03
2022-10-11T10:45:21.459Z,15.85
2022-10-11T10:47:59.801Z,16.02
2022-10-11T10:50:42.469Z,15.90
2022-10-11T10:53:21.146Z,15.97
2022-10-11T10:56:11.234Z,16.42
2022-10-11T10:58:37.598Z,16.56
2022-10-11T11:01:20.702Z,16.94
2022-10-11T11:03:58.705Z,17.46
2022-10-11T11:06:35.658Z,17.52
2022-10-11T11:09:18.770Z,17.59
2022-10-11T11:11:48.194Z,16.90
2022-10-11T11:14:34.504Z,16.89
2022-10-11T11:17:22.213Z,17.42
2022-10-11T11:20:17.583Z,17.25
2022-10-11T11:22:53.547Z,16.66
2022-10-11T11:25:34.861Z,15.73
2022-10-11T11:28:18.541Z,15.40
2022-10-11T11:31:04.320Z,16.07
2022-10-11T11:34:07.937Z,15.76
2022-10-11T11:36:46.734Z,16.32
2022-10-11T11:39:17.610Z,16.63
2022-10-11T11:41:48.865Z,16.70
2022-10-11T11:44:50.384Z,17.03
2022-10-11T11:47:36.968Z,16.27
2022-10-11T11:50:15.116Z,15.89
2022-10-11T11:52:45.883Z,15.25
2022-10-11T11:55:23.317Z,15.26
2022-10-11T11:57:49.879Z,14.88
2022-10-11T12:00:21.349Z,14.31
2022-10-11T12:02:58.678Z,14.14
2022-10-11T12:05:33.684Z,13.94
2022-10-11T12:08:09.834Z,14.52
2022-10-11T12:10:54.590Z,15.26
2022-10-11T12:13:32.567Z,15.58
2022-10-11T12:16:03.502Z,16.20
2022-10-11T12:18:31.323Z,16.02
2022-10-11T12:21:04.002Z,16.14
2022-10-11T12:23:30.506Z,16.68
2022-10-11T12:26:20.528Z,16.37
2022-10-11T12:29:19.095Z,15.87
2022-10-11T12:31:48.269Z,15.18
2022-10-11T12:34:33.238Z,15.21
2022-10-11T12:37:04.506Z,15.00
2022-10-11T12:39:49.407Z,14.73
2022-10-11T12:42:38.125Z,14.68
2022-10-11T12:45:13.602Z,14.78
2022-10-11T12:47:54.632Z,14.67
2022-10-11T12:50:34.704Z,14.52
2022-10-11T12:53:17.797Z,14.85
2022-10-11T12:56:36.884Z,14.72
2022-10-11T12:59:04.886Z,14.74
2022-10-11T13:01:48.502Z,14.78
2022-10-11T13:04:17.465Z,14.72
2022-10-11T13:06:47.515Z,14.63
2022-10-11T13:09:24.458Z,14.44
2022-10-11T13:11:55.662Z,14.59
2022-10-11T13:14:24.782Z,14.82
2022-10-11T13:17:00.028Z,15.30
2022-10-11T13:19:27.484Z,15.13
2022-10-11T13:21:57.174Z,15.21
2022-10-11T13:24:24.731Z,15.45
2022-10-11T13:26:55.259Z,15.52
2022-10-11T13:29:31.012Z,15.19
2022-10-11T13:31:57.522Z,15.45
2022-10-11T13:34:24.361Z,15.05
2022-10-11T13:36:58.120Z,15.17
2022-10-11T13:39:42.902Z,14.90
2022-10-11T13:42:12.879Z,14.92
2022-10-11T13:44:40.239Z,15.14
2022-10-11T13:47:06.777Z,15.21
2022-10-11T13:49:40.404Z,15.13
2022-10-11T13:52:22.019Z,15.03
2022-10-11T13:55:00.916Z,14.59
2022-10-11T13:57:45.225Z,14.29
2022-10-11T14:00:14.670Z,13.89
2022-10-11T14:02:50.103Z,13.84
2022-10-11T14:05:29.809Z,13.55
2022-10-11T14:07:59.364Z,13.30
2022-10-11T14:10:26.092Z,13.29
2022-10-11T14:13:23.870Z,12.92
2022-10-11T14:16:03.424Z,12.95
2022-10-11T14:18:48.628Z,12.85
2022-10-11T14:21:46.823Z,12.82
2022-10-11T14:24:14.543Z,12.58
2022-10-11T14:26:43.032Z,12.63
2022-10-11T14:29:17.882Z,12.49
2022-10-11T14:31:44.376Z,12.48
2022-10-11T14:34:21.709Z,12.58
2022-10-11T14:36:48.866Z,12.40
2022-10-11T14:39:20.494Z,12.21
2022-10-11T14:41:47.085Z,12.25
2022-10-11T14:44:14.208Z,12.22
2022-10-11T14:46:41.294Z,12.39
2022-10-11T14:49:16.530Z,12.24
2022-10-11T14:51:44.426Z,12.24
2022-10-11T14:54:11.097Z,12.18
2022-10-11T14:56:38.082Z,12.23
2022-10-11T14:59:04.713Z,12.01
2022-10-11T15:01:31.279Z,11.91
2022-10-11T15:03:57.765Z,11.92
2022-10-11T15:06:30.521Z,12.00
2022-10-11T15:08:56.984Z,11.79
2022-10-11T15:11:24.169Z,11.95
2022-10-11T15:13:50.628Z,12.01
2022-10-11T15:16:19.235Z,11.96
2022-10-11T15:18:53.260Z,12.00
2022-10-11T15:21:22.023Z,12.01
2022-10-11T15:23:51.805Z,11.92
2022-10-11T15:26:21.180Z,12.01
2022-10-11T15:28:48.417Z,12.10
2022-10-11T15:31:15.269Z,12.13
2022-10-11T15:33:42.109Z,12.14
2022-10-11T15:36:12.819Z,11.97
2022-10-11T15:38:39.399Z,11.84
2022-10-11T15:41:06.165Z,11.76
2022-10-11T15:43:32.584Z,11.72
2022-10-11T15:45:59.153Z,11.80
2022-10-11T15:48:26.612Z,11.53
2022-10-11T15:50:53.940Z,11.46
2022-10-11T15:53:23.142Z,11.42
2022-10-11T15:55:52.653Z,11.49
2022-10-11T15:58:22.964Z,11.48
2022-10-11T16:00:54.020Z,11.52
2022-10-11T16:03:22.582Z,11.32
2022-10-11T16:05:49.309Z,11.22
2022-10-11T16:08:15.966Z,11.24
2022-10-11T16:10:42.429Z,11.20
2022-10-11T16:13:09.430Z,11.16
2022-10-11T16:15:40.707Z,11.11
2022-10-11T16:18:14.901Z,11.10
2022-10-11T16:20:44.602Z,11.13
2022-10-11T16:23:13.927Z,11.05
2022-10-11T16:25:41.213Z,11.05
2022-10-11T16:28:08.109Z,10.97
2022-10-11T16:30:38.843Z,10.93
2022-10-11T16:33:05.515Z,10.92
2022-10-11T16:35:32.789Z,11.06
2022-10-11T16:38:00.536Z,10.92
2022-10-11T16:40:28.206Z,10.85
2022-10-11T16:42:54.688Z,10.79
2022-10-11T16:45:21.179Z,11.02
2022-10-11T16:47:48.098Z,10.75
2022-10-11T16:50:14.706Z,10.95
2022-10-11T16:52:41.238Z,10.78
2022-10-11T16:55:07.993Z,10.86
2022-10-11T16:57:34.495Z,10.84
2022-10-11T17:00:00.916Z,10.51
2022-10-11T17:02:31.507Z,10.66
2022-10-11T17:04:58.927Z,10.48
2022-10-11T17:07:25.668Z,10.60
2022-10-11T17:09:52.188Z,10.66
2022-10-11T17:12:21.328Z,10.63
2022-10-11T17:14:48.637Z,10.64
2022-10-11T17:17:15.679Z,10.56
2022-10-11T17:19:45.322Z,10.41
2022-10-11T17:22:13.476Z,10.42
2022-10-11T17:24:39.984Z,10.43
2022-10-11T17:27:06.947Z,10.40
2022-10-11T17:29:33.501Z,10.42
2022-10-11T17:31:59.990Z,10.31
2022-10-11T17:34:26.822Z,10.30
2022-10-11T17:36:53.295Z,10.21
2022-10-11T17:39:22.359Z,10.25
2022-10-11T17:41:49.313Z,10.38
2022-10-11T17:44:18.427Z,10.15
2022-10-11T17:46:45.262Z,10.23
2022-10-11T17:49:12.591Z,10.08
2022-10-11T17:51:40.062Z,9.98
2022-10-11T17:54:06.823Z,9.82
2022-10-11T17:56:37.581Z,10.05
2022-10-11T17:59:04.553Z,10.08
2022-10-11T18:01:31.149Z,10.07
2022-10-11T18:04:16.948Z,9.89
2022-10-11T18:06:45.218Z,9.98
2022-10-11T18:09:12.657Z,9.93
2022-10-11T18:11:39.165Z,9.96
2022-10-11T18:14:05.669Z,9.88
2022-10-11T18:16:34.835Z,9.97
2022-10-11T18:19:03.199Z,9.85
2022-10-11T18:21:34.360Z,9.76
2022-10-11T18:24:07.783Z,9.78
2022-10-11T18:26:34.354Z,9.67
2022-10-11T18:29:00.795Z,9.67
2022-10-11T18:31:29.246Z,9.60
2022-10-11T18:33:55.918Z,9.54
2022-10-11T18:36:25.670Z,9.62
2022-10-11T18:38:54.227Z,9.53
2022-10-11T18:41:22.184Z,9.68
2022-10-11T18:43:53.807Z,9.70
2022-10-11T18:46:21.204Z,9.61
2022-10-11T18:48:49.630Z,9.59
2022-10-11T18:51:20.114Z,9.68
2022-10-11T18:53:47.607Z,9.63
2022-10-11T18:56:15.442Z,9.76
2022-10-11T18:58:43.001Z,9.63
2022-10-11T19:01:12.320Z,9.66
2022-10-11T19:03:38.918Z,9.50
2022-10-11T19:06:08.424Z,9.61
2022-10-11T19:08:35.204Z,9.44
2022-10-11T19:11:06.568Z,9.51
2022-10-11T19:13:33.679Z,9.47
2022-10-11T19:16:11.274Z,9.51
2022-10-11T19:18:43.185Z,9.48
2022-10-11T19:21:12.449Z,9.65
2022-10-11T19:23:43.498Z,9.51
2022-10-11T19:26:33.770Z,9.67
2022-10-11T19:29:04.059Z,9.56
2022-10-11T19:31:30.927Z,9.58
2022-10-11T19:34:00.578Z,9.61
2022-10-11T19:36:28.416Z,9.69
2022-10-11T19:38:56.997Z,9.55
2022-10-11T19:41:24.519Z,9.60
2022-10-11T19:43:51.564Z,9.58
2022-10-11T19:46:32.381Z,9.62
2022-10-11T19:49:07.005Z,9.44
2022-10-11T19:51:34.799Z,9.40
2022-10-11T19:54:03.591Z,9.48
2022-10-11T19:56:31.423Z,9.40
2022-10-11T19:58:58.091Z,9.45
2022-10-11T20:01:26.200Z,9.50
2022-10-11T20:03:55.479Z,9.44
2022-10-11T20:06:23.414Z,9.43
2022-10-11T20:09:10.362Z,9.41
2022-10-11T20:11:37.586Z,9.47
2022-10-11T20:14:04.305Z,9.45
2022-10-11T20:16:30.816Z,9.39
2022-10-11T20:19:00.793Z,9.34
2022-10-11T20:21:29.537Z,9.36
2022-10-11T20:24:01.402Z,9.36
2022-10-11T20:26:29.048Z,9.28
2022-10-11T20:28:56.491Z,9.35
2022-10-11T20:31:27.719Z,9.36
2022-10-11T20:33:56.114Z,9.35
2022-10-11T20:36:23.523Z,9.18
2022-10-11T20:38:50.790Z,9.31
2022-10-11T20:41:18.657Z,9.26
2022-10-11T20:43:46.662Z,9.27
2022-10-11T20:46:14.946Z,9.21
2022-10-11T20:48:41.741Z,9.34
2022-10-11T20:51:09.371Z,9.03
2022-10-11T20:53:37.612Z,9.15
2022-10-11T20:56:05.385Z,9.08
2022-10-11T20:58:31.811Z,9.03
2022-10-11T21:00:58.382Z,8.98
2022-10-11T21:03:24.867Z,9.04
2022-10-11T21:05:59.006Z,8.95
2022-10-11T21:08:25.664Z,9.07
2022-10-11T21:10:53.610Z,9.05
2022-10-11T21:13:20.239Z,9.15
2022-10-11T21:15:46.710Z,9.22
2022-10-11T21:18:13.514Z,9.29
2022-10-11T21:20:43.575Z,9.33
2022-10-11T21:23:10.624Z,9.33
2022-10-11T21:25:37.715Z,9.39
2022-10-11T21:28:05.010Z,9.30
2022-10-11T21:30:33.728Z,9.53
2022-10-11T21:33:00.310Z,9.40
2022-10-11T21:35:27.947Z,9.47
2022-10-11T21:37:55.650Z,9.26
2022-10-11T21:40:22.197Z,9.31
2022-10-11T21:42:48.625Z,9.33
2022-10-11T21:45:15.093Z,9.32
2022-10-11T21:47:43.587Z,9.22
2022-10-11T21:50:10.216Z,9.13
2022-10-11T21:52:37.027Z,9.23
2022-10-11T21:55:03.880Z,9.17
2022-10-11T21:57:30.363Z,9.38
2022-10-11T21:59:56.813Z,9.25
2022-10-11T22:02:23.231Z,9.44
2022-10-11T22:04:49.671Z,9.43
2022-10-11T22:07:16.436Z,9.46
2022-10-11T22:09:42.856Z,9.32
2022-10-11T22:12:09.298Z,9.33
2022-10-11T22:14:35.771Z,9.43
2022-10-11T22:17:02.216Z,9.50
2022-10-11T22:19:28.645Z,9.38
2022-10-11T22:21:55.081Z,9.45
2022-10-11T22:24:21.509Z,9.57
2022-10-11T22:26:48.060Z,9.57
2022-10-11T22:29:14.532Z,9.61
2022-10-11T22:31:41.412Z,9.57
2022-10-11T22:34:07.870Z,9.35
2022-10-11T22:36:34.330Z,9.36
2022-10-11T22:39:00.755Z,9.42
2022-10-11T22:41:27.250Z,9.65
2022-10-11T22:43:53.715Z,9.69
2022-10-11T22:46:20.202Z,9.51
2022-10-11T22:48:46.685Z,9.58
2022-10-11T22:51:13.645Z,9.66
2022-10-11T22:53:40.083Z,9.48
2022-10-11T22:56:06.870Z,9.26
2022-10-11T22:58:33.392Z,9.31
2022-10-11T23:01:09.735Z,9.40
2022-10-11T23:03:36.742Z,9.32
2022-10-11T23:06:03.298Z,9.38
2022-10-11T23:08:29.745Z,9.40
2022-10-11T23:10:56.329Z,9.50
2022-10-11T23:13:22.769Z,9.26
2022-10-11T23:15:49.323Z,9.33
2022-10-11T23:18:16.448Z,9.32
2022-10-11T23:20:42.886Z,9.23
2022-10-11T23:23:09.308Z,9.12
2022-10-11T23:25:35.780Z,9.09
2022-10-11T23:28:02.398Z,9.05
2022-10-11T23:30:29.508Z,9.03
2022-10-11T23:32:55.999Z,9.00
2022-10-11T23:35:22.578Z,9.02
2022-10-11T23:37:49.006Z,8.97
2022-10-11T23:40:15.630Z,8.91
2022-10-11T23:42:42.063Z,9.09
2022-10-11T23:45:08.991Z,9.19
2022-10-11T23:47:35.698Z,9.16
2022-10-11T23:50:02.253Z,9.18
2022-10-11T23:52:28.687Z,9.25
2022-10-11T23:54:56.194Z,9.30
2022-10-11T23:57:22.668Z,9.09
2022-10-11T23:59:49.135Z,9.18
